createdAt,value
2023-08-25T00:03:31.196Z,100483.53
2023-08-25T00:13:37.225Z,100474.25
2023-08-25T00:23:50.179Z,100465.75
2023-08-25T00:33:55.208Z,100463.56
2023-08-25T00:43:58.251Z,100471.56
2023-08-25T00:54:00.256Z,100491.91
2023-08-25T01:04:08.877Z,100501.75
2023-08-25T01:14:18.538Z,100501.91
2023-08-25T01:24:29.479Z,100504.69
2023-08-25T01:34:31.508Z,100485.97
2023-08-25T01:44:55.450Z,100481.16
2023-08-25T01:55:16.193Z,100478.47
2023-08-25T02:05:18.312Z,100457.28
2023-08-25T02:15:24.854Z,100432.31
2023-08-25T02:25:45.004Z,100411.97
2023-08-25T02:35:47.036Z,100403.81
2023-08-25T02:45:49.024Z,100396.81
2023-08-25T02:55:51.216Z,100390.38
2023-08-25T03:05:53.160Z,100402.59
2023-08-25T03:15:55.951Z,100400.38
2023-08-25T03:26:23.607Z,100402.59
2023-08-25T03:36:25.583Z,100405.06
2023-08-25T03:46:28.612Z,100419.72
2023-08-25T03:56:30.628Z,100403.81
2023-08-25T04:06:34.640Z,100393.22
2023-08-25T04:16:36.653Z,100382.31
2023-08-25T04:26:38.624Z,100382.25
2023-08-25T04:36:41.201Z,100373.00
2023-08-25T04:46:43.252Z,100342.00
2023-08-25T04:56:45.283Z,100346.47
2023-08-25T05:07:14.984Z,100338.22
2023-08-25T05:17:19.055Z,100336.78
2023-08-25T05:27:43.991Z,100340.53
2023-08-25T05:37:46.128Z,100332.31
2023-08-25T05:47:48.191Z,100324.50
2023-08-25T05:57:50.392Z,100306.97
2023-08-25T06:07:58.665Z,100300.56
2023-08-25T06:18:05.066Z,100295.47
2023-08-25T06:28:07.260Z,100296.34
2023-08-25T06:38:09.565Z,100282.41
2023-08-25T06:48:26.674Z,100283.44
2023-08-25T06:58:28.896Z,100291.06
2023-08-25T07:08:37.395Z,100296.06
2023-08-25T07:18:39.774Z,100282.66
2023-08-25T07:28:41.720Z,100267.22
2023-08-25T07:39:00.984Z,100255.56
2023-08-25T07:49:03.143Z,100254.72
2023-08-25T07:59:28.971Z,100268.09
2023-08-25T08:09:33.122Z,100247.44
2023-08-25T08:19:35.728Z,100230.06
2023-08-25T08:29:37.720Z,100230.03
2023-08-25T08:39:40.925Z,100227.78
2023-08-25T08:49:44.430Z,100235.38
2023-08-25T09:00:16.403Z,100236.78
2023-08-25T09:10:40.407Z,100248.28
2023-08-25T09:20:42.395Z,100237.19
2023-08-25T09:30:47.759Z,100224.22
2023-08-25T09:40:49.998Z,100224.91
2023-08-25T09:50:53.571Z,100223.00
2023-08-25T10:00:56.475Z,100202.25
2023-08-25T10:11:24.097Z,100188.56
2023-08-25T10:21:28.328Z,100204.72
2023-08-25T10:31:34.570Z,100192.44
2023-08-25T10:41:44.172Z,100201.75
2023-08-25T10:51:46.251Z,100204.84
2023-08-25T11:01:59.679Z,100228.91
2023-08-25T11:12:09.787Z,100207.13
2023-08-25T11:22:13.492Z,100202.72
2023-08-25T11:32:16.679Z,100194.69
2023-08-25T11:42:23.613Z,100197.28
2023-08-25T11:52:25.757Z,100179.28
2023-08-25T12:02:27.792Z,100191.47
2023-08-25T12:12:39.222Z,100189.16
2023-08-25T12:23:06.145Z,100195.91
2023-08-25T12:33:19.609Z,100176.44
2023-08-25T12:43:21.771Z,100176.22
2023-08-25T12:53:35.568Z,100177.78
2023-08-25T13:03:43.610Z,100180.16
2023-08-25T13:13:50.835Z,100178.97
2023-08-25T13:24:15.776Z,100175.66
2023-08-25T13:34:46.610Z,100170.78
2023-08-25T13:45:05.170Z,100161.56
2023-08-25T13:55:15.667Z,100151.38
2023-08-25T14:05:19.498Z,100162.00
2023-08-25T14:15:35.611Z,100147.38
2023-08-25T14:25:37.697Z,100144.78
2023-08-25T14:35:40.686Z,100138.91
2023-08-25T14:45:43.802Z,100127.25
2023-08-25T14:55:45.838Z,100132.25
2023-08-25T15:05:47.831Z,100128.94
2023-08-25T15:15:50.173Z,100123.56
2023-08-25T15:25:56.020Z,100133.69
2023-08-25T15:36:00.358Z,100125.91
2023-08-25T15:46:02.468Z,100116.22
2023-08-25T15:56:04.767Z,100112.41
2023-08-25T16:06:08.541Z,100110.91
2023-08-25T16:16:13.628Z,100104.38
2023-08-25T16:26:15.990Z,100097.00
2023-08-25T16:36:18.247Z,100084.66
2023-08-25T16:46:20.760Z,100097.94
2023-08-25T16:56:23.156Z,100082.31
2023-08-25T17:06:25.764Z,100097.16
2023-08-25T17:16:54.701Z,100111.53
2023-08-25T17:26:56.658Z,100109.66
2023-08-25T17:36:58.632Z,100109.09
2023-08-25T17:47:18.795Z,100099.22
2023-08-25T17:57:20.976Z,100110.13
2023-08-25T18:07:23.120Z,100104.47
2023-08-25T18:17:25.346Z,100095.06
2023-08-25T18:27:29.196Z,100101.84
2023-08-25T18:37:31.203Z,100087.50
2023-08-25T18:47:33.491Z,100070.53
2023-08-25T18:57:35.779Z,100060.19
2023-08-25T19:07:38.555Z,100058.22
2023-08-25T19:17:45.782Z,100052.41
2023-08-25T19:27:48.159Z,100030.47
2023-08-25T19:38:04.125Z,100036.84
2023-08-25T19:48:21.291Z,100037.50
2023-08-25T19:58:35.231Z,100051.59
2023-08-25T20:08:40.020Z,100036.09
2023-08-25T20:18:57.909Z,100034.97
2023-08-25T20:29:14.938Z,100051.84
2023-08-25T20:39:27.382Z,100047.25
2023-08-25T20:49:30.777Z,100072.84
2023-08-25T20:59:36.569Z,100071.19
2023-08-25T21:09:49.487Z,100081.56
2023-08-25T21:19:51.351Z,100075.38
2023-08-25T21:29:53.741Z,100074.38
2023-08-25T21:39:55.872Z,100069.09
2023-08-25T21:50:01.070Z,100063.44
2023-08-25T22:00:14.927Z,100049.59
2023-08-25T22:10:22.281Z,100045.38
2023-08-25T22:20:24.258Z,100029.38
2023-08-25T22:30:26.344Z,100020.06
2023-08-25T22:40:28.398Z,100015.91
2023-08-25T22:50:30.649Z,100003.38
2023-08-25T23:00:35.627Z,100002.56
2023-08-25T23:10:47.764Z,99991.00
2023-08-25T23:21:00.954Z,100001.22
2023-08-25T23:31:17.013Z,100014.25
2023-08-25T23:41:18.942Z,100015.44
2023-08-25T23:51:20.905Z,100013.31
